createdAt,value
2023-02-15T00:01:58.645Z,2.58
2023-02-15T00:04:46.075Z,2.58
2023-02-15T00:07:14.003Z,2.66
2023-02-15T00:09:40.380Z,2.81
2023-02-15T00:12:06.785Z,2.66
2023-02-15T00:14:33.177Z,2.83
2023-02-15T00:17:00.789Z,2.71
2023-02-15T00:19:27.216Z,2.78
2023-02-15T00:21:53.660Z,2.74
2023-02-15T00:24:20.611Z,2.85
2023-02-15T00:26:47.923Z,2.78
2023-02-15T00:29:15.451Z,2.47
2023-02-15T00:31:42.040Z,2.58
2023-02-15T00:34:13.417Z,2.39
2023-02-15T00:36:40.040Z,2.23
2023-02-15T00:39:06.729Z,1.92
2023-02-15T00:41:33.837Z,1.89
2023-02-15T00:44:00.808Z,2.01
2023-02-15T00:46:27.354Z,2.07
2023-02-15T00:48:53.706Z,2.11
2023-02-15T00:51:21.236Z,1.89
2023-02-15T00:53:47.906Z,1.79
2023-02-15T00:56:14.303Z,1.86
2023-02-15T00:58:40.682Z,1.76
2023-02-15T01:01:10.763Z,2.01
2023-02-15T01:03:37.292Z,1.92
2023-02-15T01:06:04.026Z,1.90
2023-02-15T01:08:30.936Z,1.76
2023-02-15T01:10:57.325Z,1.87
2023-02-15T01:13:23.719Z,1.85
2023-02-15T01:15:56.830Z,1.70
2023-02-15T01:18:23.428Z,1.78
2023-02-15T01:20:50.357Z,1.66
2023-02-15T01:23:16.982Z,1.61
2023-02-15T01:25:43.488Z,1.55
2023-02-15T01:28:09.901Z,1.54
2023-02-15T01:30:36.534Z,1.58
2023-02-15T01:33:02.995Z,1.57
2023-02-15T01:35:29.665Z,1.60
2023-02-15T01:37:56.953Z,1.44
2023-02-15T01:40:24.319Z,1.61
2023-02-15T01:42:55.487Z,1.69
2023-02-15T01:45:32.711Z,1.63
2023-02-15T01:48:05.198Z,1.55
2023-02-15T01:50:38.576Z,1.61
2023-02-15T01:53:15.147Z,1.44
2023-02-15T01:55:46.283Z,1.45
2023-02-15T01:58:12.733Z,1.22
2023-02-15T02:00:39.235Z,1.26
2023-02-15T02:03:05.744Z,1.18
2023-02-15T02:05:32.423Z,1.14
2023-02-15T02:08:00.250Z,0.93
2023-02-15T02:10:27.070Z,0.86
2023-02-15T02:12:57.347Z,0.76
2023-02-15T02:15:32.846Z,0.82
2023-02-15T02:18:06.849Z,1.01
2023-02-15T02:20:50.018Z,1.29
2023-02-15T02:23:26.016Z,1.04
2023-02-15T02:26:17.418Z,1.05
2023-02-15T02:28:58.801Z,1.03
2023-02-15T02:31:31.161Z,0.96
2023-02-15T02:34:15.788Z,1.05
2023-02-15T02:36:42.038Z,1.09
2023-02-15T02:39:15.822Z,1.22
2023-02-15T02:41:55.747Z,1.07
2023-02-15T02:44:26.424Z,1.21
2023-02-15T02:46:58.405Z,1.21
2023-02-15T02:49:36.894Z,1.07
2023-02-15T02:52:06.672Z,1.12
2023-02-15T02:54:35.379Z,1.05
2023-02-15T02:57:05.285Z,0.91
2023-02-15T02:59:34.621Z,0.90
2023-02-15T03:02:13.934Z,0.73
2023-02-15T03:04:44.662Z,0.86
2023-02-15T03:07:13.509Z,0.96
2023-02-15T03:09:44.025Z,0.88
2023-02-15T03:12:13.674Z,0.78
2023-02-15T03:14:41.862Z,0.71
2023-02-15T03:17:08.948Z,0.87
2023-02-15T03:19:36.853Z,0.97
2023-02-15T03:22:10.611Z,0.78
2023-02-15T03:24:44.483Z,0.72
2023-02-15T03:27:21.054Z,0.49
2023-02-15T03:29:51.163Z,0.48
2023-02-15T03:32:18.092Z,0.66
2023-02-15T03:34:44.934Z,0.78
2023-02-15T03:37:15.021Z,0.93
2023-02-15T03:39:52.804Z,0.72
2023-02-15T03:42:31.418Z,0.77
2023-02-15T03:45:10.457Z,0.68
2023-02-15T03:47:47.531Z,0.69
2023-02-15T03:50:37.647Z,0.49
2023-02-15T03:53:06.372Z,0.44
2023-02-15T03:55:34.848Z,0.29
2023-02-15T03:58:19.908Z,0.29
2023-02-15T04:01:10.794Z,0.26
2023-02-15T04:03:40.921Z,0.46
2023-02-15T04:06:07.455Z,0.48
2023-02-15T04:08:52.425Z,0.46
2023-02-15T04:11:18.786Z,0.42
2023-02-15T04:13:45.155Z,0.53
2023-02-15T04:16:11.541Z,0.56
2023-02-15T04:18:58.752Z,0.53
2023-02-15T04:21:45.494Z,0.46
2023-02-15T04:24:30.957Z,0.23
2023-02-15T04:26:57.659Z,0.21
2023-02-15T04:29:25.430Z,0.25
2023-02-15T04:31:53.223Z,0.16
2023-02-15T04:34:21.035Z,0.32
2023-02-15T04:36:47.490Z,0.16
2023-02-15T04:39:15.288Z,0.27
2023-02-15T04:41:41.922Z,0.25
2023-02-15T04:44:08.890Z,0.26
2023-02-15T04:46:35.421Z,0.20
2023-02-15T04:49:01.797Z,0.06
2023-02-15T04:51:28.189Z,0.05
2023-02-15T04:53:54.548Z,0.04
2023-02-15T04:56:21.488Z,-0.01
2023-02-15T04:58:48.401Z,0.21
2023-02-15T05:01:14.832Z,0.17
2023-02-15T05:03:41.223Z,0.10
2023-02-15T05:06:07.581Z,0.06
2023-02-15T05:08:34.026Z,-0.06
2023-02-15T05:11:00.381Z,-0.30
2023-02-15T05:13:26.783Z,-0.27
2023-02-15T05:15:53.534Z,-0.11
2023-02-15T05:18:21.351Z,0.06
2023-02-15T05:20:48.043Z,0.08
2023-02-15T05:23:15.374Z,0.17
2023-02-15T05:26:00.653Z,0.28
2023-02-15T05:28:28.468Z,0.25
2023-02-15T05:31:05.986Z,0.11
2023-02-15T05:33:33.426Z,0.11
2023-02-15T05:36:01.936Z,0.14
2023-02-15T05:38:28.618Z,0.28
2023-02-15T05:40:55.040Z,0.32
2023-02-15T05:43:21.738Z,0.24
2023-02-15T05:45:49.167Z,0.20
2023-02-15T05:48:16.203Z,0.15
2023-02-15T05:50:42.574Z,-0.11
2023-02-15T05:53:09.019Z,-0.12
2023-02-15T05:55:35.417Z,-0.08
2023-02-15T05:58:01.802Z,-0.01
2023-02-15T06:00:28.169Z,0.03
2023-02-15T06:02:54.527Z,0.05
2023-02-15T06:05:20.881Z,-0.02
2023-02-15T06:07:47.261Z,0.06
2023-02-15T06:10:13.837Z,0.03
2023-02-15T06:12:40.235Z,-0.09
2023-02-15T06:15:06.943Z,-0.11
2023-02-15T06:17:33.566Z,-0.14
2023-02-15T06:19:59.939Z,0.13
2023-02-15T06:22:26.334Z,0.10
2023-02-15T06:24:52.676Z,-0.10
2023-02-15T06:27:19.026Z,-0.13
2023-02-15T06:29:45.396Z,0.01
2023-02-15T06:32:11.844Z,0.25
2023-02-15T06:34:38.295Z,0.33
2023-02-15T06:37:04.641Z,0.32
2023-02-15T06:39:31.020Z,0.29
2023-02-15T06:41:58.413Z,0.31
2023-02-15T06:44:24.780Z,0.52
2023-02-15T06:46:51.127Z,0.42
2023-02-15T06:49:17.487Z,0.17
2023-02-15T06:51:43.849Z,0.05
2023-02-15T06:54:10.273Z,-0.02
2023-02-15T06:56:36.739Z,-0.09
2023-02-15T06:59:03.256Z,-0.15
2023-02-15T07:01:29.662Z,-0.15
2023-02-15T07:03:56.058Z,-0.25
2023-02-15T07:06:22.474Z,-0.22
2023-02-15T07:08:48.845Z,-0.11
2023-02-15T07:11:33.654Z,0.03
2023-02-15T07:14:00.045Z,0.06
2023-02-15T07:16:26.453Z,0.02
2023-02-15T07:18:52.851Z,0.28
2023-02-15T07:21:19.238Z,0.58
2023-02-15T07:23:45.863Z,0.57
2023-02-15T07:26:12.436Z,0.26
2023-02-15T07:28:38.883Z,0.53
2023-02-15T07:31:05.978Z,0.28
2023-02-15T07:33:33.214Z,0.19
2023-02-15T07:36:03.003Z,0.10
2023-02-15T07:38:40.643Z,0.10
2023-02-15T07:41:09.042Z,0.13
2023-02-15T07:43:38.663Z,0.36
2023-02-15T07:46:08.316Z,0.40
2023-02-15T07:48:35.713Z,0.44
2023-02-15T07:51:03.637Z,0.49
2023-02-15T07:53:30.951Z,0.49
2023-02-15T07:56:01.717Z,0.46
2023-02-15T07:58:48.398Z,0.44
2023-02-15T08:01:15.667Z,0.49
2023-02-15T08:03:42.285Z,0.59
2023-02-15T08:06:08.868Z,0.82
2023-02-15T08:08:36.352Z,0.87
2023-02-15T08:11:31.408Z,0.95
2023-02-15T08:14:12.396Z,0.95
2023-02-15T08:16:42.807Z,1.07
2023-02-15T08:19:16.851Z,1.17
2023-02-15T08:21:53.219Z,1.28
2023-02-15T08:24:21.631Z,1.39
2023-02-15T08:26:48.833Z,1.47
2023-02-15T08:29:16.858Z,1.51
2023-02-15T08:31:43.375Z,1.35
2023-02-15T08:34:12.236Z,1.27
2023-02-15T08:36:39.109Z,1.41
2023-02-15T08:39:06.418Z,1.58
2023-02-15T08:41:37.374Z,1.84
2023-02-15T08:44:05.847Z,2.02
2023-02-15T08:46:34.427Z,2.18
2023-02-15T08:49:01.143Z,2.29
2023-02-15T08:51:30.029Z,2.20
2023-02-15T08:53:59.421Z,2.16
2023-02-15T08:56:28.392Z,2.08
2023-02-15T08:58:55.406Z,2.09
2023-02-15T09:01:23.947Z,2.09
2023-02-15T09:03:54.341Z,2.24
2023-02-15T09:06:21.599Z,2.50
2023-02-15T09:08:47.970Z,2.69
2023-02-15T09:11:26.103Z,2.76
2023-02-15T09:13:55.094Z,2.89
2023-02-15T09:16:22.896Z,3.10
2023-02-15T09:18:50.444Z,3.29
2023-02-15T09:21:18.947Z,3.62
2023-02-15T09:23:48.159Z,3.73
2023-02-15T09:26:20.248Z,3.85
2023-02-15T09:28:47.184Z,4.02
2023-02-15T09:31:18.908Z,4.16
2023-02-15T09:33:46.940Z,4.30
2023-02-15T09:36:34.437Z,4.15
2023-02-15T09:39:08.612Z,4.18
2023-02-15T09:41:55.808Z,4.24
2023-02-15T09:44:32.153Z,4.28
2023-02-15T09:47:37.840Z,4.50
2023-02-15T09:50:09.811Z,4.73
2023-02-15T09:52:43.441Z,4.80
2023-02-15T09:55:30.189Z,4.92
2023-02-15T09:58:28.392Z,5.33
2023-02-15T10:01:02.001Z,5.50
2023-02-15T10:03:40.221Z,5.66
2023-02-15T10:06:25.427Z,5.94
2023-02-15T10:09:12.106Z,6.02
2023-02-15T10:12:06.024Z,6.29
2023-02-15T10:14:38.797Z,6.51
2023-02-15T10:17:23.751Z,6.71
2023-02-15T10:20:06.422Z,7.01
2023-02-15T10:22:53.113Z,7.16
2023-02-15T10:25:44.444Z,7.37
2023-02-15T10:28:18.263Z,7.53
2023-02-15T10:30:47.873Z,7.87
2023-02-15T10:33:21.671Z,8.54
2023-02-15T10:36:06.558Z,9.11
2023-02-15T10:38:40.821Z,9.54
2023-02-15T10:41:37.179Z,9.58
2023-02-15T10:44:34.626Z,10.00
2023-02-15T10:47:31.818Z,10.09
2023-02-15T10:50:05.629Z,10.32
2023-02-15T10:52:31.892Z,10.62
2023-02-15T10:55:04.721Z,10.56
2023-02-15T10:58:06.101Z,10.74
2023-02-15T11:01:24.394Z,10.65
2023-02-15T11:04:10.962Z,11.14
2023-02-15T11:06:40.406Z,11.80
2023-02-15T11:09:13.672Z,12.42
2023-02-15T11:11:43.307Z,12.46
2023-02-15T11:14:24.839Z,12.90
2023-02-15T11:16:53.940Z,13.39
2023-02-15T11:19:33.266Z,13.65
2023-02-15T11:22:02.071Z,13.67
2023-02-15T11:24:31.066Z,13.72
2023-02-15T11:27:02.840Z,14.09
2023-02-15T11:29:34.617Z,14.03
2023-02-15T11:32:05.496Z,14.45
2023-02-15T11:34:42.057Z,14.58
2023-02-15T11:37:13.084Z,14.08
2023-02-15T11:39:39.485Z,13.66
2023-02-15T11:42:12.295Z,13.76
2023-02-15T11:44:45.437Z,13.30
2023-02-15T11:47:12.497Z,12.97
2023-02-15T11:49:39.370Z,12.72
2023-02-15T11:52:13.656Z,12.63
2023-02-15T11:54:53.121Z,12.75
2023-02-15T11:57:27.790Z,12.88
2023-02-15T11:59:58.929Z,12.98
2023-02-15T12:02:28.436Z,13.02
2023-02-15T12:05:01.561Z,13.00
2023-02-15T12:07:39.114Z,12.76
2023-02-15T12:10:18.385Z,12.74
2023-02-15T12:12:44.924Z,12.78
2023-02-15T12:15:12.738Z,12.81
2023-02-15T12:17:53.370Z,12.93
2023-02-15T12:20:19.628Z,12.83
2023-02-15T12:22:54.977Z,12.94
2023-02-15T12:25:30.413Z,13.06
2023-02-15T12:27:56.796Z,12.99
2023-02-15T12:30:28.105Z,13.20
2023-02-15T12:32:57.433Z,13.28
2023-02-15T12:35:32.154Z,13.35
2023-02-15T12:38:05.181Z,13.37
2023-02-15T12:40:34.152Z,13.38
2023-02-15T12:43:00.728Z,13.49
2023-02-15T12:45:28.980Z,13.53
2023-02-15T12:48:28.459Z,13.16
2023-02-15T12:51:08.882Z,13.56
2023-02-15T12:53:37.242Z,13.74
2023-02-15T12:56:05.709Z,13.71
2023-02-15T12:58:42.678Z,13.88
2023-02-15T13:01:17.586Z,13.91
2023-02-15T13:03:59.506Z,13.96
2023-02-15T13:06:31.806Z,13.92
2023-02-15T13:09:16.024Z,13.96
2023-02-15T13:11:43.552Z,14.04
2023-02-15T13:14:32.823Z,14.12
2023-02-15T13:17:01.735Z,14.22
2023-02-15T13:19:38.197Z,14.27
2023-02-15T13:22:09.085Z,14.29
2023-02-15T13:24:59.477Z,14.27
2023-02-15T13:27:35.217Z,14.16
2023-02-15T13:30:05.168Z,14.27
2023-02-15T13:32:37.164Z,14.38
2023-02-15T13:35:07.975Z,14.28
2023-02-15T13:38:01.877Z,14.29
2023-02-15T13:40:40.145Z,14.38
2023-02-15T13:43:20.327Z,14.43
2023-02-15T13:46:38.064Z,14.29
2023-02-15T13:49:17.521Z,14.11
2023-02-15T13:52:02.140Z,14.20
2023-02-15T13:54:44.010Z,14.43
2023-02-15T13:57:35.053Z,14.48
2023-02-15T14:00:04.973Z,14.53
2023-02-15T14:03:10.048Z,14.77
2023-02-15T14:05:51.591Z,15.34
2023-02-15T14:08:35.930Z,16.45
2023-02-15T14:11:09.047Z,16.79
2023-02-15T14:13:59.793Z,18.15
2023-02-15T14:17:04.260Z,18.96
2023-02-15T14:19:46.681Z,19.26
2023-02-15T14:22:18.620Z,18.58
2023-02-15T14:24:53.211Z,18.50
2023-02-15T14:27:47.057Z,20.55
2023-02-15T14:30:21.638Z,21.57
2023-02-15T14:32:57.105Z,22.53
2023-02-15T14:35:26.166Z,22.52
2023-02-15T14:38:22.374Z,22.98
2023-02-15T14:41:04.846Z,22.01
2023-02-15T14:44:02.613Z,22.98
2023-02-15T14:46:41.037Z,21.36
2023-02-15T14:49:16.221Z,18.76
2023-02-15T14:51:48.607Z,19.26
2023-02-15T14:54:18.210Z,18.57
2023-02-15T14:56:45.371Z,17.57
2023-02-15T14:59:15.545Z,17.54
2023-02-15T15:01:42.431Z,16.40
2023-02-15T15:04:12.950Z,15.90
2023-02-15T15:06:41.774Z,15.97
2023-02-15T15:09:25.568Z,15.08
2023-02-15T15:11:53.445Z,14.88
2023-02-15T15:14:32.019Z,15.31
2023-02-15T15:16:59.858Z,14.84
2023-02-15T15:19:52.410Z,14.46
2023-02-15T15:22:21.002Z,14.52
2023-02-15T15:24:52.254Z,14.39
2023-02-15T15:27:40.744Z,14.39
2023-02-15T15:30:19.413Z,14.56
2023-02-15T15:32:54.850Z,14.45
2023-02-15T15:35:38.208Z,14.18
2023-02-15T15:38:13.582Z,14.28
2023-02-15T15:41:03.199Z,13.73
2023-02-15T15:44:07.248Z,13.25
2023-02-15T15:47:03.234Z,13.26
2023-02-15T15:49:31.919Z,13.14
2023-02-15T15:52:02.332Z,13.06
2023-02-15T15:54:28.955Z,13.06
2023-02-15T15:57:01.486Z,12.98
2023-02-15T15:59:31.329Z,12.85
2023-02-15T16:02:05.245Z,12.70
2023-02-15T16:04:33.970Z,12.48
2023-02-15T16:07:15.590Z,12.32
2023-02-15T16:09:42.051Z,12.28
2023-02-15T16:12:16.665Z,12.27
2023-02-15T16:14:45.205Z,12.28
2023-02-15T16:17:20.202Z,12.19
2023-02-15T16:19:46.782Z,12.29
2023-02-15T16:22:16.640Z,12.17
2023-02-15T16:25:02.407Z,12.00
2023-02-15T16:27:40.506Z,11.91
2023-02-15T16:30:29.588Z,11.78
2023-02-15T16:33:05.292Z,11.63
2023-02-15T16:35:32.203Z,11.46
2023-02-15T16:37:58.694Z,11.32
2023-02-15T16:40:25.036Z,11.17
2023-02-15T16:42:56.972Z,10.90
2023-02-15T16:45:25.279Z,10.73
2023-02-15T16:47:54.752Z,10.82
2023-02-15T16:50:25.012Z,10.75
2023-02-15T16:52:52.397Z,10.60
2023-02-15T16:55:24.518Z,10.72
2023-02-15T16:57:50.822Z,10.86
2023-02-15T17:00:23.962Z,10.73
2023-02-15T17:02:56.822Z,10.53
2023-02-15T17:05:23.743Z,10.47
2023-02-15T17:08:11.947Z,10.37
2023-02-15T17:10:42.670Z,10.20
2023-02-15T17:13:13.837Z,10.10
2023-02-15T17:15:45.020Z,10.05
2023-02-15T17:18:18.835Z,9.95
2023-02-15T17:20:46.556Z,9.81
2023-02-15T17:23:33.973Z,9.76
2023-02-15T17:26:13.139Z,9.90
2023-02-15T17:28:47.197Z,9.93
2023-02-15T17:31:14.482Z,9.81
2023-02-15T17:33:41.078Z,9.68
2023-02-15T17:36:22.735Z,9.51
2023-02-15T17:38:58.436Z,9.43
2023-02-15T17:41:25.118Z,9.54
2023-02-15T17:43:51.526Z,9.65
2023-02-15T17:46:19.594Z,9.61
2023-02-15T17:48:48.093Z,9.49
2023-02-15T17:51:15.148Z,9.39
2023-02-15T17:54:02.369Z,9.14
2023-02-15T17:56:28.789Z,9.21
2023-02-15T17:58:55.161Z,9.22
2023-02-15T18:01:40.637Z,9.23
2023-02-15T18:04:33.112Z,9.23
2023-02-15T18:07:18.898Z,8.95
2023-02-15T18:10:03.677Z,8.88
2023-02-15T18:12:32.930Z,8.92
2023-02-15T18:15:00.561Z,9.03
2023-02-15T18:17:30.377Z,9.01
2023-02-15T18:19:56.887Z,9.10
2023-02-15T18:22:23.314Z,9.09
2023-02-15T18:24:49.898Z,9.02
2023-02-15T18:27:16.790Z,8.93
2023-02-15T18:29:43.308Z,8.91
2023-02-15T18:32:16.297Z,8.92
2023-02-15T18:34:43.138Z,8.91
2023-02-15T18:37:16.267Z,8.76
2023-02-15T18:39:46.831Z,8.58
2023-02-15T18:42:22.359Z,8.80
2023-02-15T18:44:50.274Z,8.63
2023-02-15T18:47:16.721Z,8.53
2023-02-15T18:49:43.157Z,8.39
2023-02-15T18:52:23.964Z,8.36
2023-02-15T18:55:03.464Z,8.28
2023-02-15T18:57:30.232Z,8.50
2023-02-15T18:59:56.619Z,8.50
2023-02-15T19:02:23.040Z,8.48
2023-02-15T19:04:49.527Z,8.54
2023-02-15T19:07:19.715Z,8.55
2023-02-15T19:09:48.272Z,8.72
2023-02-15T19:12:14.921Z,8.75
2023-02-15T19:14:41.321Z,8.79
2023-02-15T19:17:16.433Z,8.83
2023-02-15T19:19:43.265Z,8.70
2023-02-15T19:22:27.260Z,8.66
2023-02-15T19:24:56.143Z,8.68
2023-02-15T19:27:26.445Z,8.75
2023-02-15T19:29:54.606Z,8.83
2023-02-15T19:32:21.109Z,8.70
2023-02-15T19:34:47.596Z,8.78
2023-02-15T19:37:35.009Z,8.74
2023-02-15T19:40:01.821Z,8.72
2023-02-15T19:42:28.859Z,8.80
2023-02-15T19:44:55.257Z,8.76
2023-02-15T19:47:21.926Z,8.71
2023-02-15T19:49:48.352Z,8.64
2023-02-15T19:52:17.470Z,8.59
2023-02-15T19:54:46.156Z,8.53
2023-02-15T19:57:13.596Z,8.46
2023-02-15T19:59:40.829Z,8.09
2023-02-15T20:02:07.757Z,7.83
2023-02-15T20:04:34.239Z,7.76
2023-02-15T20:07:01.804Z,7.68
2023-02-15T20:09:33.673Z,7.55
2023-02-15T20:12:00.109Z,7.73
2023-02-15T20:14:26.808Z,7.87
2023-02-15T20:16:53.288Z,7.95
2023-02-15T20:19:19.848Z,7.88
2023-02-15T20:21:51.594Z,7.67
2023-02-15T20:24:19.538Z,7.35
2023-02-15T20:26:46.179Z,7.47
2023-02-15T20:29:18.331Z,7.44
2023-02-15T20:31:44.853Z,7.23
2023-02-15T20:34:11.573Z,7.26
2023-02-15T20:36:39.083Z,7.29
2023-02-15T20:39:16.532Z,7.34
2023-02-15T20:41:47.643Z,7.21
2023-02-15T20:44:29.001Z,7.15
2023-02-15T20:46:57.260Z,7.15
2023-02-15T20:49:25.635Z,7.25
2023-02-15T20:51:53.744Z,7.28
2023-02-15T20:54:25.901Z,7.08
2023-02-15T20:56:52.346Z,7.21
2023-02-15T20:59:27.924Z,7.17
2023-02-15T21:01:58.452Z,7.23
2023-02-15T21:04:31.366Z,7.36
2023-02-15T21:06:57.899Z,7.35
2023-02-15T21:09:24.320Z,7.42
2023-02-15T21:11:52.221Z,7.17
2023-02-15T21:14:23.949Z,7.16
2023-02-15T21:16:51.304Z,7.07
2023-02-15T21:19:20.076Z,6.99
2023-02-15T21:21:47.601Z,6.98
2023-02-15T21:24:20.884Z,6.99
2023-02-15T21:26:47.665Z,6.89
2023-02-15T21:29:19.092Z,6.75
2023-02-15T21:31:46.303Z,6.60
2023-02-15T21:34:13.863Z,6.62
2023-02-15T21:36:41.744Z,6.61
2023-02-15T21:39:25.411Z,6.64
2023-02-15T21:42:12.421Z,6.60
2023-02-15T21:44:58.122Z,6.50
2023-02-15T21:47:46.190Z,6.50
2023-02-15T21:50:33.640Z,6.35
2023-02-15T21:53:00.204Z,6.36
2023-02-15T21:55:27.101Z,6.31
2023-02-15T21:57:53.637Z,6.28
2023-02-15T22:00:22.438Z,6.17
2023-02-15T22:02:52.192Z,6.34
2023-02-15T22:05:25.582Z,6.52
2023-02-15T22:07:51.962Z,6.66
2023-02-15T22:10:19.955Z,6.76
2023-02-15T22:12:47.439Z,6.67
2023-02-15T22:15:25.029Z,6.60
2023-02-15T22:17:52.939Z,6.66
2023-02-15T22:20:21.496Z,6.67
2023-02-15T22:22:48.722Z,6.69
2023-02-15T22:25:17.474Z,6.68
2023-02-15T22:27:45.615Z,6.73
2023-02-15T22:30:20.354Z,6.76
2023-02-15T22:32:47.138Z,6.83
2023-02-15T22:35:20.036Z,6.72
2023-02-15T22:37:46.439Z,6.70
2023-02-15T22:40:17.198Z,6.54
2023-02-15T22:42:48.797Z,6.63
2023-02-15T22:45:23.584Z,6.47
2023-02-15T22:47:52.206Z,6.42
2023-02-15T22:50:24.181Z,6.35
2023-02-15T22:52:51.073Z,6.31
2023-02-15T22:55:19.497Z,6.28
2023-02-15T22:57:48.698Z,6.17
2023-02-15T23:00:18.288Z,6.16
2023-02-15T23:02:44.933Z,6.08
2023-02-15T23:05:18.027Z,6.04
2023-02-15T23:07:44.686Z,6.14
2023-02-15T23:10:21.050Z,6.20
2023-02-15T23:13:17.361Z,6.15
2023-02-15T23:15:45.896Z,6.29
2023-02-15T23:18:28.494Z,6.39
2023-02-15T23:20:57.232Z,6.13
2023-02-15T23:23:35.326Z,6.37
2023-02-15T23:26:04.341Z,6.45
2023-02-15T23:28:35.191Z,6.39
2023-02-15T23:31:02.480Z,6.26
2023-02-15T23:33:33.770Z,6.31
2023-02-15T23:36:00.226Z,6.29
2023-02-15T23:38:29.354Z,6.28
2023-02-15T23:41:17.376Z,6.30
2023-02-15T23:43:46.822Z,6.16
2023-02-15T23:46:22.042Z,6.07
2023-02-15T23:48:48.463Z,6.15
2023-02-15T23:51:14.857Z,6.20
2023-02-15T23:53:41.243Z,6.13
2023-02-15T23:56:13.028Z,5.88
2023-02-15T23:58:41.629Z,5.81
